sensor_id;sensor_type;location;lat;lon;timestamp;temperature;humidity
51765;DHT22;37835;53.256;6.456;2022-09-14T00:00:51;13.70;99.90
51765;DHT22;37835;53.256;6.456;2022-09-14T00:03:17;13.70;99.90
51765;DHT22;37835;53.256;6.456;2022-09-14T00:05:43;13.70;99.90
51765;DHT22;37835;53.256;6.456;2022-09-14T00:08:10;13.70;99.90
51765;DHT22;37835;53.256;6.456;2022-09-14T00:10:43;13.70;99.90
51765;DHT22;37835;53.256;6.456;2022-09-14T00:13:10;13.70;99.90
51765;DHT22;37835;53.256;6.456;2022-09-14T00:15:38;13.70;99.90
51765;DHT22;37835;53.256;6.456;2022-09-14T00:18:04;13.70;99.90
51765;DHT22;37835;53.256;6.456;2022-09-14T00:20:30;13.70;99.90
51765;DHT22;37835;53.256;6.456;2022-09-14T00:22:56;13.70;99.90
51765;DHT22;37835;53.256;6.456;2022-09-14T00:25:22;13.70;99.90
51765;DHT22;37835;53.256;6.456;2022-09-14T00:27:48;13.70;99.90
51765;DHT22;37835;53.256;6.456;2022-09-14T00:30:14;13.70;99.90
51765;DHT22;37835;53.256;6.456;2022-09-14T00:32:39;13.60;99.90
51765;DHT22;37835;53.256;6.456;2022-09-14T00:35:05;13.60;99.90
51765;DHT22;37835;53.256;6.456;2022-09-14T00:37:31;13.60;99.90
51765;DHT22;37835;53.256;6.456;2022-09-14T00:39:56;13.70;99.90
51765;DHT22;37835;53.256;6.456;2022-09-14T00:42:22;13.60;99.90
51765;DHT22;37835;53.256;6.456;2022-09-14T00:47:15;13.60;99.90
51765;DHT22;37835;53.256;6.456;2022-09-14T00:49:42;13.60;99.90
51765;DHT22;37835;53.256;6.456;2022-09-14T00:52:18;13.60;99.90
51765;DHT22;37835;53.256;6.456;2022-09-14T00:54:50;13.50;99.90
51765;DHT22;37835;53.256;6.456;2022-09-14T00:57:16;13.50;99.90
51765;DHT22;37835;53.256;6.456;2022-09-14T00:59:43;13.50;99.90
51765;DHT22;37835;53.256;6.456;2022-09-14T01:02:11;13.40;99.90
51765;DHT22;37835;53.256;6.456;2022-09-14T01:04:39;13.50;99.90
51765;DHT22;37835;53.256;6.456;2022-09-14T01:17:49;13.40;99.90
51765;DHT22;37835;53.256;6.456;2022-09-14T01:20:34;13.40;99.90
51765;DHT22;37835;53.256;6.456;2022-09-14T01:23:40;13.40;99.90
51765;DHT22;37835;53.256;6.456;2022-09-14T01:34:18;13.60;99.90
51765;DHT22;37835;53.256;6.456;2022-09-14T01:36:52;13.60;99.90
51765;DHT22;37835;53.256;6.456;2022-09-14T01:39:21;13.80;99.90
51765;DHT22;37835;53.256;6.456;2022-09-14T01:41:48;13.60;99.90
51765;DHT22;37835;53.256;6.456;2022-09-14T01:44:25;13.60;99.90
51765;DHT22;37835;53.256;6.456;2022-09-14T01:46:54;13.60;99.90
51765;DHT22;37835;53.256;6.456;2022-09-14T01:49:28;13.70;99.90
51765;DHT22;37835;53.256;6.456;2022-09-14T01:52:24;13.70;99.90
51765;DHT22;37835;53.256;6.456;2022-09-14T01:54:59;13.70;99.90
51765;DHT22;37835;53.256;6.456;2022-09-14T01:57:30;13.80;99.90
51765;DHT22;37835;53.256;6.456;2022-09-14T02:00:03;13.80;99.90
51765;DHT22;37835;53.256;6.456;2022-09-14T02:02:36;13.80;99.90
51765;DHT22;37835;53.256;6.456;2022-09-14T02:05:12;13.80;99.90
51765;DHT22;37835;53.256;6.456;2022-09-14T02:07:39;13.90;99.90
51765;DHT22;37835;53.256;6.456;2022-09-14T02:10:08;13.90;99.90
51765;DHT22;37835;53.256;6.456;2022-09-14T02:12:36;14.00;99.90
51765;DHT22;37835;53.256;6.456;2022-09-14T02:15:03;14.00;99.90
51765;DHT22;37835;53.256;6.456;2022-09-14T02:17:29;14.00;99.90
51765;DHT22;37835;53.256;6.456;2022-09-14T02:20:01;14.10;99.90
51765;DHT22;37835;53.256;6.456;2022-09-14T02:22:28;14.10;99.90
51765;DHT22;37835;53.256;6.456;2022-09-14T02:24:54;14.10;99.90
51765;DHT22;37835;53.256;6.456;2022-09-14T02:27:21;14.10;99.90
51765;DHT22;37835;53.256;6.456;2022-09-14T02:29:47;14.10;99.90
51765;DHT22;37835;53.256;6.456;2022-09-14T02:32:35;14.10;99.90
51765;DHT22;37835;53.256;6.456;2022-09-14T02:35:25;14.10;99.90
51765;DHT22;37835;53.256;6.456;2022-09-14T02:40:40;14.10;99.90
51765;DHT22;37835;53.256;6.456;2022-09-14T02:54:45;14.10;99.90
51765;DHT22;37835;53.256;6.456;2022-09-14T02:57:12;14.10;99.90
51765;DHT22;37835;53.256;6.456;2022-09-14T02:59:38;14.10;99.90
51765;DHT22;37835;53.256;6.456;2022-09-14T03:02:03;14.10;99.90
51765;DHT22;37835;53.256;6.456;2022-09-14T03:04:29;14.10;99.90
51765;DHT22;37835;53.256;6.456;2022-09-14T03:06:55;14.10;99.90
51765;DHT22;37835;53.256;6.456;2022-09-14T03:09:21;14.10;99.90
51765;DHT22;37835;53.256;6.456;2022-09-14T03:11:46;14.10;99.90
51765;DHT22;37835;53.256;6.456;2022-09-14T03:14:12;14.10;99.90
51765;DHT22;37835;53.256;6.456;2022-09-14T03:16:38;14.20;99.90
51765;DHT22;37835;53.256;6.456;2022-09-14T03:19:04;14.20;99.90
51765;DHT22;37835;53.256;6.456;2022-09-14T03:21:31;14.20;99.90
51765;DHT22;37835;53.256;6.456;2022-09-14T03:23:57;14.20;99.90
51765;DHT22;37835;53.256;6.456;2022-09-14T03:26:24;14.20;99.90
51765;DHT22;37835;53.256;6.456;2022-09-14T03:28:51;14.20;99.90
51765;DHT22;37835;53.256;6.456;2022-09-14T03:31:17;14.20;99.90
51765;DHT22;37835;53.256;6.456;2022-09-14T03:33:43;14.20;99.90
51765;DHT22;37835;53.256;6.456;2022-09-14T03:36:17;14.20;99.90
51765;DHT22;37835;53.256;6.456;2022-09-14T03:38:44;14.20;99.90
51765;DHT22;37835;53.256;6.456;2022-09-14T03:41:11;14.20;99.90
51765;DHT22;37835;53.256;6.456;2022-09-14T03:43:37;14.20;99.90
51765;DHT22;37835;53.256;6.456;2022-09-14T03:46:22;14.20;99.90
51765;DHT22;37835;53.256;6.456;2022-09-14T03:48:48;14.20;99.90
51765;DHT22;37835;53.256;6.456;2022-09-14T03:51:14;14.20;99.90
51765;DHT22;37835;53.256;6.456;2022-09-14T03:53:41;14.20;99.90
51765;DHT22;37835;53.256;6.456;2022-09-14T03:56:15;14.20;99.90
51765;DHT22;37835;53.256;6.456;2022-09-14T03:58:43;14.20;99.90
51765;DHT22;37835;53.256;6.456;2022-09-14T04:01:12;14.20;99.90
51765;DHT22;37835;53.256;6.456;2022-09-14T04:03:39;14.20;99.90
51765;DHT22;37835;53.256;6.456;2022-09-14T04:06:05;14.30;99.90
51765;DHT22;37835;53.256;6.456;2022-09-14T04:08:33;14.20;99.90
51765;DHT22;37835;53.256;6.456;2022-09-14T04:10:59;14.30;99.90
51765;DHT22;37835;53.256;6.456;2022-09-14T04:13:25;14.20;99.90
51765;DHT22;37835;53.256;6.456;2022-09-14T04:15:58;14.30;99.90
51765;DHT22;37835;53.256;6.456;2022-09-14T04:18:25;14.30;99.90
51765;DHT22;37835;53.256;6.456;2022-09-14T04:20:59;14.30;99.90
51765;DHT22;37835;53.256;6.456;2022-09-14T04:23:25;14.30;99.90
51765;DHT22;37835;53.256;6.456;2022-09-14T04:25:52;14.30;99.90
51765;DHT22;37835;53.256;6.456;2022-09-14T04:28:18;14.30;99.90
51765;DHT22;37835;53.256;6.456;2022-09-14T04:30:44;14.30;99.90
51765;DHT22;37835;53.256;6.456;2022-09-14T04:33:09;14.30;99.90
51765;DHT22;37835;53.256;6.456;2022-09-14T04:35:35;14.30;99.90
51765;DHT22;37835;53.256;6.456;2022-09-14T04:38:03;14.30;99.90
51765;DHT22;37835;53.256;6.456;2022-09-14T04:40:28;14.30;99.90
51765;DHT22;37835;53.256;6.456;2022-09-14T04:42:54;14.30;99.90
51765;DHT22;37835;53.256;6.456;2022-09-14T04:45:19;15.00;99.90
51765;DHT22;37835;53.256;6.456;2022-09-14T04:47:45;14.30;99.90
51765;DHT22;37835;53.256;6.456;2022-09-14T04:50:11;14.80;99.90
51765;DHT22;37835;53.256;6.456;2022-09-14T04:52:36;14.30;99.90
51765;DHT22;37835;53.256;6.456;2022-09-14T04:55:02;14.30;99.90
51765;DHT22;37835;53.256;6.456;2022-09-14T04:57:28;14.30;99.90
51765;DHT22;37835;53.256;6.456;2022-09-14T04:59:54;14.30;99.90
51765;DHT22;37835;53.256;6.456;2022-09-14T05:02:19;14.20;99.90
51765;DHT22;37835;53.256;6.456;2022-09-14T05:04:45;14.30;99.90
51765;DHT22;37835;53.256;6.456;2022-09-14T05:07:10;14.30;99.90
51765;DHT22;37835;53.256;6.456;2022-09-14T05:09:36;14.20;99.90
51765;DHT22;37835;53.256;6.456;2022-09-14T05:12:01;14.20;99.90
51765;DHT22;37835;53.256;6.456;2022-09-14T05:14:27;14.20;99.90
51765;DHT22;37835;53.256;6.456;2022-09-14T05:16:53;14.20;99.90
51765;DHT22;37835;53.256;6.456;2022-09-14T05:19:19;14.20;99.90
51765;DHT22;37835;53.256;6.456;2022-09-14T05:21:44;14.20;99.90
51765;DHT22;37835;53.256;6.456;2022-09-14T05:24:13;14.20;99.90
51765;DHT22;37835;53.256;6.456;2022-09-14T05:26:40;14.20;99.90
51765;DHT22;37835;53.256;6.456;2022-09-14T05:29:06;14.20;99.90
51765;DHT22;37835;53.256;6.456;2022-09-14T05:31:32;14.10;99.90
51765;DHT22;37835;53.256;6.456;2022-09-14T05:33:58;14.20;99.90
51765;DHT22;37835;53.256;6.456;2022-09-14T05:36:24;14.10;99.90
51765;DHT22;37835;53.256;6.456;2022-09-14T05:38:50;14.10;99.90
51765;DHT22;37835;53.256;6.456;2022-09-14T05:41:16;14.10;99.90
51765;DHT22;37835;53.256;6.456;2022-09-14T05:43:42;14.10;99.90
51765;DHT22;37835;53.256;6.456;2022-09-14T05:46:26;14.20;99.90
51765;DHT22;37835;53.256;6.456;2022-09-14T05:48:52;14.20;99.90
51765;DHT22;37835;53.256;6.456;2022-09-14T05:51:20;14.20;99.90
51765;DHT22;37835;53.256;6.456;2022-09-14T05:53:47;14.20;99.90
51765;DHT22;37835;53.256;6.456;2022-09-14T05:56:14;14.20;99.90
51765;DHT22;37835;53.256;6.456;2022-09-14T05:58:41;14.20;99.90
51765;DHT22;37835;53.256;6.456;2022-09-14T06:03:36;14.30;99.90
51765;DHT22;37835;53.256;6.456;2022-09-14T06:06:03;14.30;99.90
51765;DHT22;37835;53.256;6.456;2022-09-14T06:08:29;14.30;99.90
51765;DHT22;37835;53.256;6.456;2022-09-14T06:10:55;14.40;99.90
51765;DHT22;37835;53.256;6.456;2022-09-14T06:13:20;14.30;99.90
51765;DHT22;37835;53.256;6.456;2022-09-14T06:15:48;14.40;99.90
51765;DHT22;37835;53.256;6.456;2022-09-14T06:18:13;14.40;99.90
51765;DHT22;37835;53.256;6.456;2022-09-14T06:20:39;14.40;99.90
51765;DHT22;37835;53.256;6.456;2022-09-14T06:23:04;14.40;99.90
51765;DHT22;37835;53.256;6.456;2022-09-14T06:25:30;14.50;99.90
51765;DHT22;37835;53.256;6.456;2022-09-14T06:27:55;14.50;99.90
51765;DHT22;37835;53.256;6.456;2022-09-14T06:30:21;14.50;99.90
51765;DHT22;37835;53.256;6.456;2022-09-14T06:32:47;14.60;99.90
51765;DHT22;37835;53.256;6.456;2022-09-14T06:35:12;14.60;99.90
51765;DHT22;37835;53.256;6.456;2022-09-14T06:37:38;14.60;99.90
51765;DHT22;37835;53.256;6.456;2022-09-14T06:40:04;14.70;99.90
51765;DHT22;37835;53.256;6.456;2022-09-14T06:42:29;14.70;99.90
51765;DHT22;37835;53.256;6.456;2022-09-14T06:44:55;14.80;99.90
51765;DHT22;37835;53.256;6.456;2022-09-14T06:47:21;14.80;99.90
51765;DHT22;37835;53.256;6.456;2022-09-14T06:49:48;14.90;99.90
51765;DHT22;37835;53.256;6.456;2022-09-14T06:52:15;15.00;99.90
51765;DHT22;37835;53.256;6.456;2022-09-14T06:54:40;15.00;99.90
51765;DHT22;37835;53.256;6.456;2022-09-14T06:57:06;15.10;99.90
51765;DHT22;37835;53.256;6.456;2022-09-14T06:59:32;15.10;99.90
51765;DHT22;37835;53.256;6.456;2022-09-14T07:01:57;15.20;99.90
51765;DHT22;37835;53.256;6.456;2022-09-14T07:04:23;15.20;99.90
51765;DHT22;37835;53.256;6.456;2022-09-14T07:06:49;15.30;99.90
51765;DHT22;37835;53.256;6.456;2022-09-14T07:09:16;15.30;99.90
51765;DHT22;37835;53.256;6.456;2022-09-14T07:11:42;15.30;99.90
51765;DHT22;37835;53.256;6.456;2022-09-14T07:14:09;15.40;99.90
51765;DHT22;37835;53.256;6.456;2022-09-14T07:16:35;15.40;99.90
51765;DHT22;37835;53.256;6.456;2022-09-14T07:19:05;15.40;99.90
51765;DHT22;37835;53.256;6.456;2022-09-14T07:21:32;15.50;99.90
51765;DHT22;37835;53.256;6.456;2022-09-14T07:23:58;15.50;99.90
51765;DHT22;37835;53.256;6.456;2022-09-14T07:26:29;15.50;99.90
51765;DHT22;37835;53.256;6.456;2022-09-14T07:29:01;15.60;99.90
51765;DHT22;37835;53.256;6.456;2022-09-14T07:31:35;15.60;99.90
51765;DHT22;37835;53.256;6.456;2022-09-14T07:34:02;15.70;99.90
51765;DHT22;37835;53.256;6.456;2022-09-14T07:36:29;15.70;99.90
51765;DHT22;37835;53.256;6.456;2022-09-14T07:38:56;15.80;99.90
51765;DHT22;37835;53.256;6.456;2022-09-14T07:41:24;15.80;99.90
51765;DHT22;37835;53.256;6.456;2022-09-14T07:43:52;15.80;99.90
51765;DHT22;37835;53.256;6.456;2022-09-14T07:46:18;15.90;99.90
51765;DHT22;37835;53.256;6.456;2022-09-14T07:48:44;15.90;99.90
51765;DHT22;37835;53.256;6.456;2022-09-14T07:51:10;16.00;99.90
51765;DHT22;37835;53.256;6.456;2022-09-14T07:53:38;16.00;99.90
51765;DHT22;37835;53.256;6.456;2022-09-14T07:56:05;16.10;99.90
51765;DHT22;37835;53.256;6.456;2022-09-14T07:58:32;16.10;99.90
51765;DHT22;37835;53.256;6.456;2022-09-14T08:01:05;16.10;99.90
51765;DHT22;37835;53.256;6.456;2022-09-14T08:03:37;16.20;99.90
51765;DHT22;37835;53.256;6.456;2022-09-14T08:06:08;16.20;99.90
51765;DHT22;37835;53.256;6.456;2022-09-14T08:08:37;16.20;99.90
51765;DHT22;37835;53.256;6.456;2022-09-14T08:11:05;16.30;99.90
51765;DHT22;37835;53.256;6.456;2022-09-14T08:13:33;16.30;99.90
51765;DHT22;37835;53.256;6.456;2022-09-14T08:15:59;16.40;99.90
51765;DHT22;37835;53.256;6.456;2022-09-14T08:18:25;16.50;99.90
51765;DHT22;37835;53.256;6.456;2022-09-14T08:20:51;16.50;99.90
51765;DHT22;37835;53.256;6.456;2022-09-14T08:23:17;16.60;99.90
51765;DHT22;37835;53.256;6.456;2022-09-14T08:25:43;16.60;99.90
51765;DHT22;37835;53.256;6.456;2022-09-14T08:28:08;16.60;99.90
51765;DHT22;37835;53.256;6.456;2022-09-14T08:30:34;16.70;99.90
51765;DHT22;37835;53.256;6.456;2022-09-14T08:33:00;16.70;99.90
51765;DHT22;37835;53.256;6.456;2022-09-14T08:35:25;16.80;99.90
51765;DHT22;37835;53.256;6.456;2022-09-14T08:37:51;16.80;99.90
51765;DHT22;37835;53.256;6.456;2022-09-14T08:40:18;16.90;99.90
51765;DHT22;37835;53.256;6.456;2022-09-14T08:42:44;17.00;99.90
51765;DHT22;37835;53.256;6.456;2022-09-14T08:45:13;17.10;99.90
51765;DHT22;37835;53.256;6.456;2022-09-14T08:47:41;17.10;99.90
51765;DHT22;37835;53.256;6.456;2022-09-14T08:50:15;17.30;99.90
51765;DHT22;37835;53.256;6.456;2022-09-14T08:52:43;17.30;99.90
51765;DHT22;37835;53.256;6.456;2022-09-14T08:55:56;17.40;99.90
51765;DHT22;37835;53.256;6.456;2022-09-14T09:01:22;17.60;99.90
51765;DHT22;37835;53.256;6.456;2022-09-14T09:06:50;17.70;99.90
51765;DHT22;37835;53.256;6.456;2022-09-14T09:09:29;17.70;99.90
51765;DHT22;37835;53.256;6.456;2022-09-14T09:11:58;17.70;99.90
51765;DHT22;37835;53.256;6.456;2022-09-14T09:14:32;17.70;99.90
51765;DHT22;37835;53.256;6.456;2022-09-14T09:17:29;17.70;99.90
51765;DHT22;37835;53.256;6.456;2022-09-14T09:20:15;17.70;99.90
51765;DHT22;37835;53.256;6.456;2022-09-14T09:22:52;17.70;99.90
51765;DHT22;37835;53.256;6.456;2022-09-14T09:25:21;17.70;99.90
51765;DHT22;37835;53.256;6.456;2022-09-14T09:27:49;17.70;99.90
51765;DHT22;37835;53.256;6.456;2022-09-14T09:30:15;17.70;99.90
51765;DHT22;37835;53.256;6.456;2022-09-14T09:32:41;17.70;99.90
51765;DHT22;37835;53.256;6.456;2022-09-14T09:35:12;17.70;99.90
51765;DHT22;37835;53.256;6.456;2022-09-14T09:37:39;17.70;99.90
51765;DHT22;37835;53.256;6.456;2022-09-14T09:40:16;17.70;99.90
51765;DHT22;37835;53.256;6.456;2022-09-14T09:43:12;17.70;99.90
51765;DHT22;37835;53.256;6.456;2022-09-14T09:48:13;17.80;99.90
51765;DHT22;37835;53.256;6.456;2022-09-14T09:51:14;17.80;99.90
51765;DHT22;37835;53.256;6.456;2022-09-14T09:53:56;17.80;99.90
51765;DHT22;37835;53.256;6.456;2022-09-14T09:56:32;18.00;99.90
51765;DHT22;37835;53.256;6.456;2022-09-14T09:59:00;17.90;99.90
51765;DHT22;37835;53.256;6.456;2022-09-14T10:01:34;18.00;99.90
51765;DHT22;37835;53.256;6.456;2022-09-14T10:07:04;18.00;99.90
51765;DHT22;37835;53.256;6.456;2022-09-14T10:09:29;18.10;99.90
51765;DHT22;37835;53.256;6.456;2022-09-14T10:12:00;18.10;99.90
51765;DHT22;37835;53.256;6.456;2022-09-14T10:17:22;18.20;99.90
51765;DHT22;37835;53.256;6.456;2022-09-14T10:19:49;18.20;99.90
51765;DHT22;37835;53.256;6.456;2022-09-14T10:22:31;18.30;99.90
51765;DHT22;37835;53.256;6.456;2022-09-14T10:25:24;18.30;99.90
51765;DHT22;37835;53.256;6.456;2022-09-14T10:30:27;18.30;99.90
51765;DHT22;37835;53.256;6.456;2022-09-14T10:33:05;18.40;99.90
51765;DHT22;37835;53.256;6.456;2022-09-14T10:36:05;18.30;99.90
51765;DHT22;37835;53.256;6.456;2022-09-14T10:41:49;18.30;99.90
51765;DHT22;37835;53.256;6.456;2022-09-14T10:55:50;18.30;99.90
51765;DHT22;37835;53.256;6.456;2022-09-14T11:01:04;18.30;99.90
51765;DHT22;37835;53.256;6.456;2022-09-14T11:04:13;18.30;99.90
51765;DHT22;37835;53.256;6.456;2022-09-14T11:06:56;18.40;99.90
51765;DHT22;37835;53.256;6.456;2022-09-14T11:09:46;18.50;99.90
51765;DHT22;37835;53.256;6.456;2022-09-14T11:18:16;18.60;99.90
51765;DHT22;37835;53.256;6.456;2022-09-14T11:21:13;18.60;99.90
51765;DHT22;37835;53.256;6.456;2022-09-14T11:29:16;18.80;99.90
51765;DHT22;37835;53.256;6.456;2022-09-14T11:31:54;18.80;99.90
51765;DHT22;37835;53.256;6.456;2022-09-14T11:34:42;18.90;99.90
51765;DHT22;37835;53.256;6.456;2022-09-14T11:37:16;18.90;99.90
51765;DHT22;37835;53.256;6.456;2022-09-14T11:39:47;18.90;99.90
51765;DHT22;37835;53.256;6.456;2022-09-14T11:42:21;18.90;99.90
51765;DHT22;37835;53.256;6.456;2022-09-14T11:44:58;18.90;99.90
51765;DHT22;37835;53.256;6.456;2022-09-14T11:48:19;19.00;99.90
51765;DHT22;37835;53.256;6.456;2022-09-14T11:50:47;19.10;99.90
51765;DHT22;37835;53.256;6.456;2022-09-14T11:53:16;19.10;99.90
51765;DHT22;37835;53.256;6.456;2022-09-14T11:55:48;19.20;99.90
51765;DHT22;37835;53.256;6.456;2022-09-14T11:58:21;19.30;99.90
51765;DHT22;37835;53.256;6.456;2022-09-14T12:03:18;19.30;99.90
51765;DHT22;37835;53.256;6.456;2022-09-14T12:05:46;19.40;99.90
51765;DHT22;37835;53.256;6.456;2022-09-14T12:08:25;19.40;99.90
51765;DHT22;37835;53.256;6.456;2022-09-14T12:11:30;19.50;99.90
51765;DHT22;37835;53.256;6.456;2022-09-14T12:14:34;19.60;99.90
51765;DHT22;37835;53.256;6.456;2022-09-14T12:17:25;19.70;99.90
51765;DHT22;37835;53.256;6.456;2022-09-14T12:19:55;19.80;99.90
51765;DHT22;37835;53.256;6.456;2022-09-14T12:27:39;19.90;99.90
51765;DHT22;37835;53.256;6.456;2022-09-14T12:30:34;19.90;99.90
51765;DHT22;37835;53.256;6.456;2022-09-14T12:36:09;20.00;99.90
51765;DHT22;37835;53.256;6.456;2022-09-14T12:39:04;19.90;99.90
51765;DHT22;37835;53.256;6.456;2022-09-14T12:43:54;20.00;99.90
51765;DHT22;37835;53.256;6.456;2022-09-14T12:51:31;20.10;99.90
51765;DHT22;37835;53.256;6.456;2022-09-14T12:54:27;20.00;99.90
51765;DHT22;37835;53.256;6.456;2022-09-14T13:00:08;19.80;99.90
51765;DHT22;37835;53.256;6.456;2022-09-14T13:03:00;19.70;99.90
51765;DHT22;37835;53.256;6.456;2022-09-14T13:05:31;19.70;99.90
51765;DHT22;37835;53.256;6.456;2022-09-14T13:07:59;19.60;99.90
51765;DHT22;37835;53.256;6.456;2022-09-14T13:10:31;19.60;99.90
51765;DHT22;37835;53.256;6.456;2022-09-14T13:13:02;19.50;99.90
51765;DHT22;37835;53.256;6.456;2022-09-14T13:15:35;19.40;99.90
51765;DHT22;37835;53.256;6.456;2022-09-14T13:18:04;19.50;99.90
51765;DHT22;37835;53.256;6.456;2022-09-14T13:20:32;19.40;99.90
51765;DHT22;37835;53.256;6.456;2022-09-14T13:22:58;19.50;99.90
51765;DHT22;37835;53.256;6.456;2022-09-14T13:25:35;19.50;99.90
51765;DHT22;37835;53.256;6.456;2022-09-14T13:28:10;19.40;99.90
51765;DHT22;37835;53.256;6.456;2022-09-14T13:30:38;19.40;99.90
51765;DHT22;37835;53.256;6.456;2022-09-14T13:33:12;19.40;99.90
51765;DHT22;37835;53.256;6.456;2022-09-14T13:35:58;19.20;99.90
51765;DHT22;37835;53.256;6.456;2022-09-14T13:38:28;18.60;99.90
51765;DHT22;37835;53.256;6.456;2022-09-14T13:41:02;19.50;99.90
51765;DHT22;37835;53.256;6.456;2022-09-14T13:43:28;19.60;99.90
51765;DHT22;37835;53.256;6.456;2022-09-14T13:45:55;19.60;99.90
51765;DHT22;37835;53.256;6.456;2022-09-14T13:48:21;19.60;99.90
51765;DHT22;37835;53.256;6.456;2022-09-14T13:50:50;19.60;99.90
51765;DHT22;37835;53.256;6.456;2022-09-14T13:56:35;19.60;99.90
51765;DHT22;37835;53.256;6.456;2022-09-14T14:01:39;19.60;99.90
51765;DHT22;37835;53.256;6.456;2022-09-14T14:04:16;19.60;99.90
51765;DHT22;37835;53.256;6.456;2022-09-14T14:06:44;19.60;99.90
51765;DHT22;37835;53.256;6.456;2022-09-14T14:09:10;19.50;99.90
51765;DHT22;37835;53.256;6.456;2022-09-14T14:11:41;19.40;99.90
51765;DHT22;37835;53.256;6.456;2022-09-14T14:17:06;19.50;99.90
51765;DHT22;37835;53.256;6.456;2022-09-14T14:19:28;19.50;99.90
51765;DHT22;37835;53.256;6.456;2022-09-14T14:24:38;19.50;99.90
51765;DHT22;37835;53.256;6.456;2022-09-14T14:27:04;19.50;99.90
51765;DHT22;37835;53.256;6.456;2022-09-14T14:29:29;19.50;99.90
51765;DHT22;37835;53.256;6.456;2022-09-14T14:31:55;19.50;99.90
51765;DHT22;37835;53.256;6.456;2022-09-14T14:34:26;19.50;99.90
51765;DHT22;37835;53.256;6.456;2022-09-14T14:36:53;19.60;99.90
51765;DHT22;37835;53.256;6.456;2022-09-14T14:39:21;19.60;99.90
51765;DHT22;37835;53.256;6.456;2022-09-14T14:41:47;19.60;99.90
51765;DHT22;37835;53.256;6.456;2022-09-14T14:44:19;19.60;99.90
51765;DHT22;37835;53.256;6.456;2022-09-14T14:46:46;19.70;99.90
51765;DHT22;37835;53.256;6.456;2022-09-14T14:49:14;19.70;99.90
51765;DHT22;37835;53.256;6.456;2022-09-14T14:51:40;19.70;99.90
51765;DHT22;37835;53.256;6.456;2022-09-14T14:54:07;19.70;99.90
51765;DHT22;37835;53.256;6.456;2022-09-14T14:56:33;19.70;99.90
51765;DHT22;37835;53.256;6.456;2022-09-14T14:58:59;19.70;99.90
51765;DHT22;37835;53.256;6.456;2022-09-14T15:01:25;19.70;99.90
51765;DHT22;37835;53.256;6.456;2022-09-14T15:03:50;19.70;99.90
51765;DHT22;37835;53.256;6.456;2022-09-14T15:06:21;19.40;99.90
51765;DHT22;37835;53.256;6.456;2022-09-14T15:08:52;19.70;99.90
51765;DHT22;37835;53.256;6.456;2022-09-14T15:11:18;19.60;99.90
51765;DHT22;37835;53.256;6.456;2022-09-14T15:13:45;19.70;99.90
51765;DHT22;37835;53.256;6.456;2022-09-14T15:16:11;19.60;99.90
51765;DHT22;37835;53.256;6.456;2022-09-14T15:18:37;19.60;99.90
51765;DHT22;37835;53.256;6.456;2022-09-14T15:21:03;19.50;99.90
51765;DHT22;37835;53.256;6.456;2022-09-14T15:23:29;19.50;99.90
51765;DHT22;37835;53.256;6.456;2022-09-14T15:25:54;19.50;99.90
51765;DHT22;37835;53.256;6.456;2022-09-14T15:28:20;19.40;99.90
51765;DHT22;37835;53.256;6.456;2022-09-14T15:30:46;19.40;99.90
51765;DHT22;37835;53.256;6.456;2022-09-14T15:33:11;19.30;99.90
51765;DHT22;37835;53.256;6.456;2022-09-14T15:35:37;19.40;99.90
51765;DHT22;37835;53.256;6.456;2022-09-14T15:38:04;19.30;99.90
51765;DHT22;37835;53.256;6.456;2022-09-14T15:40:29;19.30;99.90
51765;DHT22;37835;53.256;6.456;2022-09-14T15:42:55;19.30;99.90
51765;DHT22;37835;53.256;6.456;2022-09-14T15:45:20;19.30;99.90
51765;DHT22;37835;53.256;6.456;2022-09-14T15:47:46;19.20;99.90
51765;DHT22;37835;53.256;6.456;2022-09-14T15:50:12;19.20;99.90
51765;DHT22;37835;53.256;6.456;2022-09-14T15:52:38;19.20;99.90
51765;DHT22;37835;53.256;6.456;2022-09-14T15:55:05;19.10;99.90
51765;DHT22;37835;53.256;6.456;2022-09-14T15:57:31;19.20;99.90
51765;DHT22;37835;53.256;6.456;2022-09-14T15:59:57;19.20;99.90
51765;DHT22;37835;53.256;6.456;2022-09-14T16:02:23;19.20;99.90
51765;DHT22;37835;53.256;6.456;2022-09-14T16:04:48;19.20;99.90
51765;DHT22;37835;53.256;6.456;2022-09-14T16:07:14;19.10;99.90
51765;DHT22;37835;53.256;6.456;2022-09-14T16:09:40;19.10;99.90
51765;DHT22;37835;53.256;6.456;2022-09-14T16:12:08;19.00;99.90
51765;DHT22;37835;53.256;6.456;2022-09-14T16:14:34;19.00;99.90
51765;DHT22;37835;53.256;6.456;2022-09-14T16:17:00;19.00;99.90
51765;DHT22;37835;53.256;6.456;2022-09-14T16:19:25;19.00;99.90
51765;DHT22;37835;53.256;6.456;2022-09-14T16:21:51;18.90;99.90
51765;DHT22;37835;53.256;6.456;2022-09-14T16:24:17;18.90;99.90
51765;DHT22;37835;53.256;6.456;2022-09-14T16:26:44;18.90;99.90
51765;DHT22;37835;53.256;6.456;2022-09-14T16:29:12;18.80;99.90
51765;DHT22;37835;53.256;6.456;2022-09-14T16:31:40;18.70;99.90
51765;DHT22;37835;53.256;6.456;2022-09-14T16:34:15;18.70;99.90
51765;DHT22;37835;53.256;6.456;2022-09-14T16:36:42;18.70;99.90
51765;DHT22;37835;53.256;6.456;2022-09-14T16:39:14;18.70;99.90
51765;DHT22;37835;53.256;6.456;2022-09-14T16:41:40;18.60;99.90
51765;DHT22;37835;53.256;6.456;2022-09-14T16:44:09;18.60;99.90
51765;DHT22;37835;53.256;6.456;2022-09-14T16:46:36;18.50;99.90
51765;DHT22;37835;53.256;6.456;2022-09-14T16:49:03;18.50;99.90
51765;DHT22;37835;53.256;6.456;2022-09-14T16:51:30;18.40;99.90
51765;DHT22;37835;53.256;6.456;2022-09-14T16:53:57;18.30;99.90
51765;DHT22;37835;53.256;6.456;2022-09-14T16:56:35;18.30;99.90
51765;DHT22;37835;53.256;6.456;2022-09-14T16:59:02;18.20;99.90
51765;DHT22;37835;53.256;6.456;2022-09-14T17:01:30;18.00;99.90
51765;DHT22;37835;53.256;6.456;2022-09-14T17:03:58;18.10;99.90
51765;DHT22;37835;53.256;6.456;2022-09-14T17:06:28;18.00;99.90
51765;DHT22;37835;53.256;6.456;2022-09-14T17:08:56;18.00;99.90
51765;DHT22;37835;53.256;6.456;2022-09-14T17:11:22;17.90;99.90
51765;DHT22;37835;53.256;6.456;2022-09-14T17:13:48;17.90;99.90
51765;DHT22;37835;53.256;6.456;2022-09-14T17:16:16;17.90;99.90
51765;DHT22;37835;53.256;6.456;2022-09-14T17:18:44;17.90;99.90
51765;DHT22;37835;53.256;6.456;2022-09-14T17:21:14;17.70;99.90
51765;DHT22;37835;53.256;6.456;2022-09-14T17:23:41;17.80;99.90
51765;DHT22;37835;53.256;6.456;2022-09-14T17:26:10;17.70;99.90
51765;DHT22;37835;53.256;6.456;2022-09-14T17:28:36;17.60;99.90
51765;DHT22;37835;53.256;6.456;2022-09-14T17:31:04;17.70;99.90
51765;DHT22;37835;53.256;6.456;2022-09-14T17:33:30;17.60;99.90
51765;DHT22;37835;53.256;6.456;2022-09-14T17:35:59;17.50;99.90
51765;DHT22;37835;53.256;6.456;2022-09-14T17:38:26;17.50;99.90
51765;DHT22;37835;53.256;6.456;2022-09-14T17:40:59;17.40;99.90
51765;DHT22;37835;53.256;6.456;2022-09-14T17:43:25;17.40;99.90